Terminal Aerodrome Forecast
Issued by NWS

Home | Current Version | Previous Version | Text Only | Print | Product List | Glossary On
Versions: 1 2 3 4 5 6 7 8 9 10 11 12 13
000
FTUS44 KOUN 232320
TAFPNC
TAF
KPNC 232320Z 2400/2424 33011KT P6SM VCSH OVC100
     FM240100 33008KT P6SM BKN090
     FM241400 33012KT P6SM SCT040=

USA.gov is the U.S. government's official web portal to all federal, state and local government web resources and services.